sensor_id;sensor_type;location;lat;lon;timestamp;P1;durP1;ratioP1;P2;durP2;ratioP2
4053;SDS011;2042;47.956;9.222;2023-11-21T00:00:00;1.73;;;0.80;;
4053;SDS011;2042;47.956;9.222;2023-11-21T00:02:26;3.23;;;1.43;;
4053;SDS011;2042;47.956;9.222;2023-11-21T00:04:54;3.30;;;0.93;;
4053;SDS011;2042;47.956;9.222;2023-11-21T00:07:20;1.40;;;0.80;;
4053;SDS011;2042;47.956;9.222;2023-11-21T00:09:46;1.47;;;0.93;;
4053;SDS011;2042;47.956;9.222;2023-11-21T00:12:12;0.93;;;0.73;;
4053;SDS011;2042;47.956;9.222;2023-11-21T00:14:39;2.23;;;1.10;;
4053;SDS011;2042;47.956;9.222;2023-11-21T00:17:05;1.47;;;0.60;;
4053;SDS011;2042;47.956;9.222;2023-11-21T00:19:31;3.70;;;1.00;;
4053;SDS011;2042;47.956;9.222;2023-11-21T00:21:58;2.00;;;1.00;;
4053;SDS011;2042;47.956;9.222;2023-11-21T00:24:24;3.27;;;1.07;;
4053;SDS011;2042;47.956;9.222;2023-11-21T00:26:51;1.93;;;1.13;;
4053;SDS011;2042;47.956;9.222;2023-11-21T00:29:16;1.77;;;0.80;;
4053;SDS011;2042;47.956;9.222;2023-11-21T00:31:43;5.37;;;1.00;;
4053;SDS011;2042;47.956;9.222;2023-11-21T00:34:11;1.53;;;1.43;;
4053;SDS011;2042;47.956;9.222;2023-11-21T00:36:37;1.57;;;0.63;;
4053;SDS011;2042;47.956;9.222;2023-11-21T00:39:03;0.80;;;0.80;;
4053;SDS011;2042;47.956;9.222;2023-11-21T00:41:30;4.20;;;1.17;;
4053;SDS011;2042;47.956;9.222;2023-11-21T00:43:56;2.13;;;0.73;;
4053;SDS011;2042;47.956;9.222;2023-11-21T00:46:22;1.80;;;0.90;;
4053;SDS011;2042;47.956;9.222;2023-11-21T00:48:49;0.90;;;0.80;;
4053;SDS011;2042;47.956;9.222;2023-11-21T00:51:15;3.25;;;0.90;;
4053;SDS011;2042;47.956;9.222;2023-11-21T00:53:41;1.33;;;0.70;;
4053;SDS011;2042;47.956;9.222;2023-11-21T00:56:06;1.53;;;0.80;;
4053;SDS011;2042;47.956;9.222;2023-11-21T00:58:33;0.93;;;0.70;;
4053;SDS011;2042;47.956;9.222;2023-11-21T01:01:00;2.40;;;0.80;;
4053;SDS011;2042;47.956;9.222;2023-11-21T01:03:26;4.10;;;1.10;;
4053;SDS011;2042;47.956;9.222;2023-11-21T01:05:51;3.27;;;0.70;;
4053;SDS011;2042;47.956;9.222;2023-11-21T01:08:17;1.17;;;0.93;;
4053;SDS011;2042;47.956;9.222;2023-11-21T01:10:43;1.90;;;0.60;;
4053;SDS011;2042;47.956;9.222;2023-11-21T01:13:08;1.20;;;0.90;;
4053;SDS011;2042;47.956;9.222;2023-11-21T01:15:35;1.23;;;0.80;;
4053;SDS011;2042;47.956;9.222;2023-11-21T01:18:01;2.97;;;0.80;;
4053;SDS011;2042;47.956;9.222;2023-11-21T01:20:27;1.63;;;0.90;;
4053;SDS011;2042;47.956;9.222;2023-11-21T01:22:52;1.20;;;0.90;;
4053;SDS011;2042;47.956;9.222;2023-11-21T01:25:19;1.20;;;0.80;;
4053;SDS011;2042;47.956;9.222;2023-11-21T01:27:46;1.23;;;1.13;;
4053;SDS011;2042;47.956;9.222;2023-11-21T01:30:11;1.97;;;0.90;;
4053;SDS011;2042;47.956;9.222;2023-11-21T01:32:38;1.80;;;0.90;;
4053;SDS011;2042;47.956;9.222;2023-11-21T01:35:04;1.53;;;1.00;;
4053;SDS011;2042;47.956;9.222;2023-11-21T01:37:31;2.28;;;1.02;;
4053;SDS011;2042;47.956;9.222;2023-11-21T01:39:58;0.90;;;0.70;;
4053;SDS011;2042;47.956;9.222;2023-11-21T01:42:26;3.90;;;1.40;;
4053;SDS011;2042;47.956;9.222;2023-11-21T01:44:52;1.40;;;0.93;;
4053;SDS011;2042;47.956;9.222;2023-11-21T01:47:19;2.87;;;0.80;;
4053;SDS011;2042;47.956;9.222;2023-11-21T01:49:46;1.87;;;1.10;;
4053;SDS011;2042;47.956;9.222;2023-11-21T01:52:13;1.57;;;0.93;;
4053;SDS011;2042;47.956;9.222;2023-11-21T01:54:39;2.40;;;0.90;;
4053;SDS011;2042;47.956;9.222;2023-11-21T01:57:06;1.70;;;1.10;;
4053;SDS011;2042;47.956;9.222;2023-11-21T01:59:35;0.87;;;0.87;;
4053;SDS011;2042;47.956;9.222;2023-11-21T02:02:05;7.70;;;1.57;;
4053;SDS011;2042;47.956;9.222;2023-11-21T02:04:34;5.97;;;1.00;;
4053;SDS011;2042;47.956;9.222;2023-11-21T02:07:04;1.70;;;0.80;;
4053;SDS011;2042;47.956;9.222;2023-11-21T02:09:33;2.07;;;0.90;;
4053;SDS011;2042;47.956;9.222;2023-11-21T02:11:59;2.57;;;1.37;;
4053;SDS011;2042;47.956;9.222;2023-11-21T02:14:26;2.77;;;1.13;;
4053;SDS011;2042;47.956;9.222;2023-11-21T02:16:53;1.00;;;0.70;;
4053;SDS011;2042;47.956;9.222;2023-11-21T02:19:19;4.13;;;1.13;;
4053;SDS011;2042;47.956;9.222;2023-11-21T02:21:49;4.87;;;1.17;;
4053;SDS011;2042;47.956;9.222;2023-11-21T02:24:16;1.73;;;1.00;;
4053;SDS011;2042;47.956;9.222;2023-11-21T02:26:45;5.50;;;1.07;;
4053;SDS011;2042;47.956;9.222;2023-11-21T02:29:11;3.07;;;1.00;;
4053;SDS011;2042;47.956;9.222;2023-11-21T02:31:38;3.50;;;0.80;;
4053;SDS011;2042;47.956;9.222;2023-11-21T02:34:13;2.33;;;1.00;;
4053;SDS011;2042;47.956;9.222;2023-11-21T02:36:39;2.83;;;1.00;;
4053;SDS011;2042;47.956;9.222;2023-11-21T02:39:05;1.67;;;0.83;;
4053;SDS011;2042;47.956;9.222;2023-11-21T02:41:32;3.50;;;1.00;;
4053;SDS011;2042;47.956;9.222;2023-11-21T02:43:59;0.80;;;0.70;;
4053;SDS011;2042;47.956;9.222;2023-11-21T02:46:25;2.53;;;1.37;;
4053;SDS011;2042;47.956;9.222;2023-11-21T02:48:51;0.90;;;0.70;;
4053;SDS011;2042;47.956;9.222;2023-11-21T02:51:19;1.93;;;0.80;;
4053;SDS011;2042;47.956;9.222;2023-11-21T02:53:45;1.20;;;0.80;;
4053;SDS011;2042;47.956;9.222;2023-11-21T02:56:11;1.67;;;0.67;;
4053;SDS011;2042;47.956;9.222;2023-11-21T02:58:37;1.65;;;1.00;;
4053;SDS011;2042;47.956;9.222;2023-11-21T03:01:06;1.37;;;0.87;;
4053;SDS011;2042;47.956;9.222;2023-11-21T03:03:32;2.50;;;0.90;;
4053;SDS011;2042;47.956;9.222;2023-11-21T03:05:58;1.93;;;0.83;;
4053;SDS011;2042;47.956;9.222;2023-11-21T03:08:23;1.00;;;0.70;;
4053;SDS011;2042;47.956;9.222;2023-11-21T03:10:49;2.53;;;0.80;;
4053;SDS011;2042;47.956;9.222;2023-11-21T03:13:15;2.20;;;1.25;;
4053;SDS011;2042;47.956;9.222;2023-11-21T03:15:40;2.00;;;0.80;;
4053;SDS011;2042;47.956;9.222;2023-11-21T03:18:07;3.90;;;1.87;;
4053;SDS011;2042;47.956;9.222;2023-11-21T03:20:33;2.00;;;0.80;;
4053;SDS011;2042;47.956;9.222;2023-11-21T03:22:59;2.23;;;0.80;;
4053;SDS011;2042;47.956;9.222;2023-11-21T03:25:25;2.80;;;1.20;;
4053;SDS011;2042;47.956;9.222;2023-11-21T03:27:51;1.50;;;1.00;;
4053;SDS011;2042;47.956;9.222;2023-11-21T03:30:17;3.60;;;1.40;;
4053;SDS011;2042;47.956;9.222;2023-11-21T03:32:42;2.00;;;0.80;;
4053;SDS011;2042;47.956;9.222;2023-11-21T03:35:08;5.83;;;1.10;;
4053;SDS011;2042;47.956;9.222;2023-11-21T03:37:34;0.77;;;0.77;;
4053;SDS011;2042;47.956;9.222;2023-11-21T03:40:00;2.57;;;1.20;;
4053;SDS011;2042;47.956;9.222;2023-11-21T03:42:26;1.57;;;1.07;;
4053;SDS011;2042;47.956;9.222;2023-11-21T03:44:51;1.87;;;0.90;;
4053;SDS011;2042;47.956;9.222;2023-11-21T03:47:17;2.20;;;0.97;;
4053;SDS011;2042;47.956;9.222;2023-11-21T03:49:44;6.27;;;1.60;;
4053;SDS011;2042;47.956;9.222;2023-11-21T03:52:11;0.93;;;0.87;;
4053;SDS011;2042;47.956;9.222;2023-11-21T03:54:36;6.90;;;1.33;;
4053;SDS011;2042;47.956;9.222;2023-11-21T03:57:02;1.40;;;1.30;;
4053;SDS011;2042;47.956;9.222;2023-11-21T03:59:28;1.87;;;0.87;;
4053;SDS011;2042;47.956;9.222;2023-11-21T04:01:57;1.03;;;0.90;;
4053;SDS011;2042;47.956;9.222;2023-11-21T04:04:23;1.00;;;0.70;;
4053;SDS011;2042;47.956;9.222;2023-11-21T04:06:48;2.20;;;0.90;;
4053;SDS011;2042;47.956;9.222;2023-11-21T04:09:14;2.03;;;0.77;;
4053;SDS011;2042;47.956;9.222;2023-11-21T04:11:40;1.20;;;0.70;;
4053;SDS011;2042;47.956;9.222;2023-11-21T04:14:05;0.77;;;0.67;;
4053;SDS011;2042;47.956;9.222;2023-11-21T04:16:31;1.67;;;0.87;;
4053;SDS011;2042;47.956;9.222;2023-11-21T04:18:57;1.47;;;1.10;;
4053;SDS011;2042;47.956;9.222;2023-11-21T04:21:23;1.70;;;1.00;;
4053;SDS011;2042;47.956;9.222;2023-11-21T04:23:49;1.10;;;0.83;;
4053;SDS011;2042;47.956;9.222;2023-11-21T04:26:15;2.00;;;0.80;;
4053;SDS011;2042;47.956;9.222;2023-11-21T04:28:41;3.80;;;1.17;;
4053;SDS011;2042;47.956;9.222;2023-11-21T04:31:06;1.60;;;1.10;;
4053;SDS011;2042;47.956;9.222;2023-11-21T04:33:32;1.07;;;0.90;;
4053;SDS011;2042;47.956;9.222;2023-11-21T04:35:58;1.10;;;0.70;;
4053;SDS011;2042;47.956;9.222;2023-11-21T04:38:23;4.30;;;1.10;;
4053;SDS011;2042;47.956;9.222;2023-11-21T04:40:49;1.07;;;1.00;;
4053;SDS011;2042;47.956;9.222;2023-11-21T04:43:15;1.00;;;0.90;;
4053;SDS011;2042;47.956;9.222;2023-11-21T04:45:40;1.77;;;0.90;;
4053;SDS011;2042;47.956;9.222;2023-11-21T04:48:06;1.73;;;1.33;;
4053;SDS011;2042;47.956;9.222;2023-11-21T04:50:33;3.37;;;0.90;;
4053;SDS011;2042;47.956;9.222;2023-11-21T04:53:00;2.57;;;1.37;;
4053;SDS011;2042;47.956;9.222;2023-11-21T04:55:25;1.10;;;1.00;;
4053;SDS011;2042;47.956;9.222;2023-11-21T04:57:53;1.27;;;1.00;;
4053;SDS011;2042;47.956;9.222;2023-11-21T05:00:19;1.50;;;1.10;;
4053;SDS011;2042;47.956;9.222;2023-11-21T05:02:46;5.20;;;1.10;;
4053;SDS011;2042;47.956;9.222;2023-11-21T05:05:12;1.10;;;0.80;;
4053;SDS011;2042;47.956;9.222;2023-11-21T05:07:38;3.45;;;0.90;;
4053;SDS011;2042;47.956;9.222;2023-11-21T05:10:05;1.13;;;0.87;;
4053;SDS011;2042;47.956;9.222;2023-11-21T05:12:35;0.70;;;0.70;;
4053;SDS011;2042;47.956;9.222;2023-11-21T05:15:04;0.90;;;0.90;;
4053;SDS011;2042;47.956;9.222;2023-11-21T05:17:36;1.17;;;1.10;;
4053;SDS011;2042;47.956;9.222;2023-11-21T05:20:04;1.87;;;0.90;;
4053;SDS011;2042;47.956;9.222;2023-11-21T05:22:33;2.80;;;0.80;;
4053;SDS011;2042;47.956;9.222;2023-11-21T05:24:59;2.63;;;0.83;;
4053;SDS011;2042;47.956;9.222;2023-11-21T05:27:25;1.80;;;0.70;;
4053;SDS011;2042;47.956;9.222;2023-11-21T05:29:51;4.67;;;0.90;;
4053;SDS011;2042;47.956;9.222;2023-11-21T05:32:16;1.03;;;0.90;;
4053;SDS011;2042;47.956;9.222;2023-11-21T05:34:42;1.90;;;0.77;;
4053;SDS011;2042;47.956;9.222;2023-11-21T05:37:08;0.80;;;0.77;;
4053;SDS011;2042;47.956;9.222;2023-11-21T05:39:34;0.93;;;0.90;;
4053;SDS011;2042;47.956;9.222;2023-11-21T05:42:00;1.83;;;0.90;;
4053;SDS011;2042;47.956;9.222;2023-11-21T05:44:26;3.53;;;0.90;;
4053;SDS011;2042;47.956;9.222;2023-11-21T05:46:52;0.70;;;0.70;;
4053;SDS011;2042;47.956;9.222;2023-11-21T05:49:18;1.73;;;0.70;;
4053;SDS011;2042;47.956;9.222;2023-11-21T05:51:46;2.00;;;0.70;;
4053;SDS011;2042;47.956;9.222;2023-11-21T05:54:13;4.63;;;1.23;;
4053;SDS011;2042;47.956;9.222;2023-11-21T05:56:39;2.70;;;1.00;;
4053;SDS011;2042;47.956;9.222;2023-11-21T05:59:04;2.57;;;0.90;;
4053;SDS011;2042;47.956;9.222;2023-11-21T06:01:31;2.97;;;1.00;;
4053;SDS011;2042;47.956;9.222;2023-11-21T06:03:57;1.53;;;0.80;;
4053;SDS011;2042;47.956;9.222;2023-11-21T06:06:22;1.13;;;1.03;;
4053;SDS011;2042;47.956;9.222;2023-11-21T06:08:49;1.20;;;0.90;;
4053;SDS011;2042;47.956;9.222;2023-11-21T06:11:15;1.23;;;0.90;;
4053;SDS011;2042;47.956;9.222;2023-11-21T06:13:41;1.33;;;0.90;;
4053;SDS011;2042;47.956;9.222;2023-11-21T06:16:07;0.80;;;0.80;;
4053;SDS011;2042;47.956;9.222;2023-11-21T06:18:33;2.00;;;0.67;;
4053;SDS011;2042;47.956;9.222;2023-11-21T06:21:00;1.40;;;0.70;;
4053;SDS011;2042;47.956;9.222;2023-11-21T06:23:26;1.00;;;0.70;;
4053;SDS011;2042;47.956;9.222;2023-11-21T06:25:51;3.00;;;0.77;;
4053;SDS011;2042;47.956;9.222;2023-11-21T06:28:18;2.10;;;1.10;;
4053;SDS011;2042;47.956;9.222;2023-11-21T06:30:43;1.20;;;0.67;;
4053;SDS011;2042;47.956;9.222;2023-11-21T06:33:10;1.73;;;0.90;;
4053;SDS011;2042;47.956;9.222;2023-11-21T06:35:36;1.47;;;1.00;;
4053;SDS011;2042;47.956;9.222;2023-11-21T06:38:02;1.20;;;1.10;;
4053;SDS011;2042;47.956;9.222;2023-11-21T06:40:28;1.87;;;1.27;;
4053;SDS011;2042;47.956;9.222;2023-11-21T06:42:53;1.70;;;1.50;;
4053;SDS011;2042;47.956;9.222;2023-11-21T06:45:19;1.30;;;1.20;;
4053;SDS011;2042;47.956;9.222;2023-11-21T06:47:47;1.60;;;1.50;;
4053;SDS011;2042;47.956;9.222;2023-11-21T06:50:14;7.70;;;1.93;;
4053;SDS011;2042;47.956;9.222;2023-11-21T06:52:40;2.03;;;1.83;;
4053;SDS011;2042;47.956;9.222;2023-11-21T06:55:05;3.00;;;2.10;;
4053;SDS011;2042;47.956;9.222;2023-11-21T06:57:33;9.40;;;2.90;;
4053;SDS011;2042;47.956;9.222;2023-11-21T06:59:59;2.70;;;2.50;;
4053;SDS011;2042;47.956;9.222;2023-11-21T07:02:25;5.60;;;2.60;;
4053;SDS011;2042;47.956;9.222;2023-11-21T07:04:50;4.10;;;2.50;;
4053;SDS011;2042;47.956;9.222;2023-11-21T07:07:16;6.10;;;3.00;;
4053;SDS011;2042;47.956;9.222;2023-11-21T07:09:43;3.10;;;2.77;;
4053;SDS011;2042;47.956;9.222;2023-11-21T07:12:08;4.43;;;3.00;;
4053;SDS011;2042;47.956;9.222;2023-11-21T07:14:36;2.70;;;2.50;;
4053;SDS011;2042;47.956;9.222;2023-11-21T07:17:04;4.77;;;3.23;;
4053;SDS011;2042;47.956;9.222;2023-11-21T07:19:30;9.10;;;3.07;;
4053;SDS011;2042;47.956;9.222;2023-11-21T07:21:55;4.17;;;3.00;;
4053;SDS011;2042;47.956;9.222;2023-11-21T07:24:21;8.90;;;3.70;;
4053;SDS011;2042;47.956;9.222;2023-11-21T07:26:48;6.30;;;3.40;;
4053;SDS011;2042;47.956;9.222;2023-11-21T07:29:14;6.20;;;3.47;;
4053;SDS011;2042;47.956;9.222;2023-11-21T07:31:40;4.30;;;3.43;;
4053;SDS011;2042;47.956;9.222;2023-11-21T07:34:06;7.57;;;3.83;;
4053;SDS011;2042;47.956;9.222;2023-11-21T07:36:33;6.80;;;4.07;;
4053;SDS011;2042;47.956;9.222;2023-11-21T07:38:58;4.20;;;3.80;;
4053;SDS011;2042;47.956;9.222;2023-11-21T07:41:24;6.93;;;3.97;;
4053;SDS011;2042;47.956;9.222;2023-11-21T07:43:50;6.40;;;4.57;;
4053;SDS011;2042;47.956;9.222;2023-11-21T07:46:15;3.73;;;3.43;;
4053;SDS011;2042;47.956;9.222;2023-11-21T07:48:41;9.33;;;3.73;;
4053;SDS011;2042;47.956;9.222;2023-11-21T07:51:08;5.80;;;4.17;;
4053;SDS011;2042;47.956;9.222;2023-11-21T07:53:35;5.70;;;4.40;;
4053;SDS011;2042;47.956;9.222;2023-11-21T07:56:08;9.40;;;4.30;;
4053;SDS011;2042;47.956;9.222;2023-11-21T07:58:35;6.93;;;5.00;;
4053;SDS011;2042;47.956;9.222;2023-11-21T08:01:01;4.47;;;4.07;;
4053;SDS011;2042;47.956;9.222;2023-11-21T08:03:28;5.70;;;4.10;;
4053;SDS011;2042;47.956;9.222;2023-11-21T08:05:57;6.37;;;4.30;;
4053;SDS011;2042;47.956;9.222;2023-11-21T08:08:23;4.30;;;3.53;;
4053;SDS011;2042;47.956;9.222;2023-11-21T08:10:49;4.80;;;3.50;;
4053;SDS011;2042;47.956;9.222;2023-11-21T08:13:24;6.40;;;4.53;;
4053;SDS011;2042;47.956;9.222;2023-11-21T08:15:53;5.47;;;4.40;;
4053;SDS011;2042;47.956;9.222;2023-11-21T08:18:19;4.47;;;3.90;;
4053;SDS011;2042;47.956;9.222;2023-11-21T08:20:45;6.00;;;4.77;;
4053;SDS011;2042;47.956;9.222;2023-11-21T08:23:16;4.97;;;3.93;;
4053;SDS011;2042;47.956;9.222;2023-11-21T08:25:44;6.83;;;4.50;;
4053;SDS011;2042;47.956;9.222;2023-11-21T08:28:10;7.73;;;4.10;;
4053;SDS011;2042;47.956;9.222;2023-11-21T08:30:37;6.57;;;5.50;;
4053;SDS011;2042;47.956;9.222;2023-11-21T08:33:02;5.00;;;4.50;;
4053;SDS011;2042;47.956;9.222;2023-11-21T08:35:29;4.50;;;3.87;;
4053;SDS011;2042;47.956;9.222;2023-11-21T08:37:55;4.50;;;4.10;;
4053;SDS011;2042;47.956;9.222;2023-11-21T08:40:20;5.03;;;4.20;;
4053;SDS011;2042;47.956;9.222;2023-11-21T08:42:47;5.33;;;4.00;;
4053;SDS011;2042;47.956;9.222;2023-11-21T08:45:16;7.67;;;3.93;;
4053;SDS011;2042;47.956;9.222;2023-11-21T08:47:42;5.70;;;4.37;;
4053;SDS011;2042;47.956;9.222;2023-11-21T08:50:09;4.50;;;3.93;;
4053;SDS011;2042;47.956;9.222;2023-11-21T08:52:37;4.70;;;4.00;;
4053;SDS011;2042;47.956;9.222;2023-11-21T08:55:04;5.90;;;4.40;;
4053;SDS011;2042;47.956;9.222;2023-11-21T08:57:35;3.60;;;3.30;;
4053;SDS011;2042;47.956;9.222;2023-11-21T09:00:02;4.47;;;3.40;;
4053;SDS011;2042;47.956;9.222;2023-11-21T09:02:32;5.73;;;4.07;;
4053;SDS011;2042;47.956;9.222;2023-11-21T09:05:02;4.47;;;3.03;;
4053;SDS011;2042;47.956;9.222;2023-11-21T09:07:31;4.70;;;4.07;;
4053;SDS011;2042;47.956;9.222;2023-11-21T09:09:57;5.20;;;4.17;;
4053;SDS011;2042;47.956;9.222;2023-11-21T09:12:23;3.10;;;2.90;;
4053;SDS011;2042;47.956;9.222;2023-11-21T09:14:51;4.20;;;3.40;;
4053;SDS011;2042;47.956;9.222;2023-11-21T09:17:17;3.00;;;2.10;;
4053;SDS011;2042;47.956;9.222;2023-11-21T09:19:43;3.70;;;2.80;;
4053;SDS011;2042;47.956;9.222;2023-11-21T09:22:12;8.17;;;2.10;;
4053;SDS011;2042;47.956;9.222;2023-11-21T09:24:37;5.77;;;2.60;;
4053;SDS011;2042;47.956;9.222;2023-11-21T09:27:03;2.43;;;2.07;;
4053;SDS011;2042;47.956;9.222;2023-11-21T09:29:30;2.50;;;2.30;;
4053;SDS011;2042;47.956;9.222;2023-11-21T09:31:56;2.30;;;2.10;;
4053;SDS011;2042;47.956;9.222;2023-11-21T09:34:24;2.60;;;2.40;;
4053;SDS011;2042;47.956;9.222;2023-11-21T09:36:51;3.20;;;2.00;;
4053;SDS011;2042;47.956;9.222;2023-11-21T09:39:17;1.60;;;1.50;;
4053;SDS011;2042;47.956;9.222;2023-11-21T09:44:42;2.63;;;2.20;;
4053;SDS011;2042;47.956;9.222;2023-11-21T09:47:13;9.10;;;1.30;;
4053;SDS011;2042;47.956;9.222;2023-11-21T09:49:42;2.00;;;1.77;;
4053;SDS011;2042;47.956;9.222;2023-11-21T09:52:32;3.07;;;1.93;;
4053;SDS011;2042;47.956;9.222;2023-11-21T09:55:04;1.70;;;1.60;;
4053;SDS011;2042;47.956;9.222;2023-11-21T09:57:30;2.60;;;1.67;;
4053;SDS011;2042;47.956;9.222;2023-11-21T09:59:56;1.40;;;1.30;;
4053;SDS011;2042;47.956;9.222;2023-11-21T10:02:30;1.80;;;1.70;;
4053;SDS011;2042;47.956;9.222;2023-11-21T10:05:01;2.90;;;1.90;;
4053;SDS011;2042;47.956;9.222;2023-11-21T10:07:28;4.63;;;1.50;;
4053;SDS011;2042;47.956;9.222;2023-11-21T10:09:56;2.20;;;1.90;;
4053;SDS011;2042;47.956;9.222;2023-11-21T10:12:24;1.80;;;1.70;;
4053;SDS011;2042;47.956;9.222;2023-11-21T10:14:51;2.00;;;1.80;;
4053;SDS011;2042;47.956;9.222;2023-11-21T10:17:20;1.10;;;0.93;;
4053;SDS011;2042;47.956;9.222;2023-11-21T10:19:51;1.00;;;0.90;;
4053;SDS011;2042;47.956;9.222;2023-11-21T10:22:19;1.23;;;1.13;;
4053;SDS011;2042;47.956;9.222;2023-11-21T10:24:45;2.93;;;0.80;;
4053;SDS011;2042;47.956;9.222;2023-11-21T10:27:11;10.23;;;3.27;;
4053;SDS011;2042;47.956;9.222;2023-11-21T10:29:38;2.47;;;2.27;;
4053;SDS011;2042;47.956;9.222;2023-11-21T10:32:04;1.07;;;0.73;;
4053;SDS011;2042;47.956;9.222;2023-11-21T10:34:30;25.03;;;5.30;;
4053;SDS011;2042;47.956;9.222;2023-11-21T10:36:57;3.07;;;0.90;;
4053;SDS011;2042;47.956;9.222;2023-11-21T10:39:23;13.83;;;2.50;;
4053;SDS011;2042;47.956;9.222;2023-11-21T10:41:52;1.53;;;0.90;;
4053;SDS011;2042;47.956;9.222;2023-11-21T10:44:19;0.90;;;0.80;;
4053;SDS011;2042;47.956;9.222;2023-11-21T10:46:49;2.97;;;1.13;;
4053;SDS011;2042;47.956;9.222;2023-11-21T10:49:20;2.37;;;1.07;;
4053;SDS011;2042;47.956;9.222;2023-11-21T10:51:46;1.97;;;0.80;;
4053;SDS011;2042;47.956;9.222;2023-11-21T10:54:20;1.83;;;0.80;;
4053;SDS011;2042;47.956;9.222;2023-11-21T10:56:51;0.70;;;0.60;;
4053;SDS011;2042;47.956;9.222;2023-11-21T10:59:22;1.10;;;0.83;;
4053;SDS011;2042;47.956;9.222;2023-11-21T11:01:50;0.80;;;0.70;;
4053;SDS011;2042;47.956;9.222;2023-11-21T11:04:18;0.70;;;0.67;;
4053;SDS011;2042;47.956;9.222;2023-11-21T11:06:44;1.33;;;0.80;;
4053;SDS011;2042;47.956;9.222;2023-11-21T11:09:19;0.90;;;0.80;;
4053;SDS011;2042;47.956;9.222;2023-11-21T11:11:45;1.13;;;0.60;;
4053;SDS011;2042;47.956;9.222;2023-11-21T11:14:11;1.00;;;0.80;;
4053;SDS011;2042;47.956;9.222;2023-11-21T11:16:38;1.63;;;0.80;;
4053;SDS011;2042;47.956;9.222;2023-11-21T11:19:08;0.80;;;0.57;;
4053;SDS011;2042;47.956;9.222;2023-11-21T11:27:54;2.30;;;0.80;;
4053;SDS011;2042;47.956;9.222;2023-11-21T11:33:30;1.10;;;0.70;;
4053;SDS011;2042;47.956;9.222;2023-11-21T11:36:10;2.17;;;0.70;;
4053;SDS011;2042;47.956;9.222;2023-11-21T11:38:39;1.83;;;0.70;;
4053;SDS011;2042;47.956;9.222;2023-11-21T11:41:11;2.70;;;1.63;;
4053;SDS011;2042;47.956;9.222;2023-11-21T11:43:37;1.57;;;0.77;;
4053;SDS011;2042;47.956;9.222;2023-11-21T11:46:09;1.87;;;1.17;;
4053;SDS011;2042;47.956;9.222;2023-11-21T11:48:41;1.90;;;1.73;;
4053;SDS011;2042;47.956;9.222;2023-11-21T11:53:40;1.30;;;0.70;;
4053;SDS011;2042;47.956;9.222;2023-11-21T11:56:19;1.30;;;0.80;;
4053;SDS011;2042;47.956;9.222;2023-11-21T11:59:00;1.10;;;1.00;;
4053;SDS011;2042;47.956;9.222;2023-11-21T12:01:32;1.27;;;0.73;;
4053;SDS011;2042;47.956;9.222;2023-11-21T12:06:45;1.30;;;1.13;;
4053;SDS011;2042;47.956;9.222;2023-11-21T12:09:22;1.43;;;1.00;;
4053;SDS011;2042;47.956;9.222;2023-11-21T12:11:49;1.37;;;1.27;;
4053;SDS011;2042;47.956;9.222;2023-11-21T12:14:15;0.90;;;0.77;;
4053;SDS011;2042;47.956;9.222;2023-11-21T12:16:41;1.77;;;1.20;;
4053;SDS011;2042;47.956;9.222;2023-11-21T12:19:11;1.20;;;1.10;;
4053;SDS011;2042;47.956;9.222;2023-11-21T12:21:37;2.73;;;1.17;;
4053;SDS011;2042;47.956;9.222;2023-11-21T12:24:06;3.33;;;0.80;;
4053;SDS011;2042;47.956;9.222;2023-11-21T12:26:34;0.80;;;0.70;;
4053;SDS011;2042;47.956;9.222;2023-11-21T12:29:01;1.20;;;1.10;;
4053;SDS011;2042;47.956;9.222;2023-11-21T12:31:29;1.23;;;1.13;;
4053;SDS011;2042;47.956;9.222;2023-11-21T12:33:55;1.00;;;0.90;;
4053;SDS011;2042;47.956;9.222;2023-11-21T12:36:21;0.70;;;0.70;;
4053;SDS011;2042;47.956;9.222;2023-11-21T12:38:47;1.00;;;0.90;;
4053;SDS011;2042;47.956;9.222;2023-11-21T12:41:12;2.50;;;1.20;;
4053;SDS011;2042;47.956;9.222;2023-11-21T12:43:40;1.30;;;0.80;;
4053;SDS011;2042;47.956;9.222;2023-11-21T12:46:06;1.23;;;1.13;;
4053;SDS011;2042;47.956;9.222;2023-11-21T12:48:39;0.90;;;0.70;;
4053;SDS011;2042;47.956;9.222;2023-11-21T12:51:09;0.83;;;0.70;;
4053;SDS011;2042;47.956;9.222;2023-11-21T12:53:36;1.90;;;1.00;;
4053;SDS011;2042;47.956;9.222;2023-11-21T12:56:10;1.30;;;0.90;;
4053;SDS011;2042;47.956;9.222;2023-11-21T12:58:36;0.90;;;0.80;;
4053;SDS011;2042;47.956;9.222;2023-11-21T13:01:07;0.70;;;0.53;;
4053;SDS011;2042;47.956;9.222;2023-11-21T13:03:39;0.67;;;0.63;;
4053;SDS011;2042;47.956;9.222;2023-11-21T13:06:07;1.73;;;0.70;;
4053;SDS011;2042;47.956;9.222;2023-11-21T13:08:33;1.30;;;0.80;;
4053;SDS011;2042;47.956;9.222;2023-11-21T13:10:59;1.20;;;0.80;;
4053;SDS011;2042;47.956;9.222;2023-11-21T13:13:26;0.80;;;0.80;;
4053;SDS011;2042;47.956;9.222;2023-11-21T13:15:54;0.60;;;0.60;;
4053;SDS011;2042;47.956;9.222;2023-11-21T13:18:21;1.60;;;0.70;;
4053;SDS011;2042;47.956;9.222;2023-11-21T13:20:56;0.77;;;0.70;;
4053;SDS011;2042;47.956;9.222;2023-11-21T13:23:23;1.53;;;0.60;;
4053;SDS011;2042;47.956;9.222;2023-11-21T13:25:50;2.77;;;0.90;;
4053;SDS011;2042;47.956;9.222;2023-11-21T13:28:16;1.90;;;1.00;;
4053;SDS011;2042;47.956;9.222;2023-11-21T13:30:46;0.70;;;0.60;;
4053;SDS011;2042;47.956;9.222;2023-11-21T13:33:17;0.60;;;0.60;;
4053;SDS011;2042;47.956;9.222;2023-11-21T13:35:46;1.00;;;0.70;;
4053;SDS011;2042;47.956;9.222;2023-11-21T13:38:14;0.97;;;0.67;;
4053;SDS011;2042;47.956;9.222;2023-11-21T13:40:47;1.00;;;0.90;;
4053;SDS011;2042;47.956;9.222;2023-11-21T13:43:21;2.10;;;0.70;;
4053;SDS011;2042;47.956;9.222;2023-11-21T13:45:51;0.70;;;0.60;;
4053;SDS011;2042;47.956;9.222;2023-11-21T13:48:26;1.20;;;0.70;;
4053;SDS011;2042;47.956;9.222;2023-11-21T13:51:05;0.63;;;0.60;;
4053;SDS011;2042;47.956;9.222;2023-11-21T13:53:45;0.73;;;0.73;;
4053;SDS011;2042;47.956;9.222;2023-11-21T13:56:17;0.77;;;0.60;;
4053;SDS011;2042;47.956;9.222;2023-11-21T13:58:50;0.73;;;0.70;;
4053;SDS011;2042;47.956;9.222;2023-11-21T14:01:23;0.77;;;0.60;;
4053;SDS011;2042;47.956;9.222;2023-11-21T14:03:57;0.60;;;0.60;;
4053;SDS011;2042;47.956;9.222;2023-11-21T14:06:42;0.70;;;0.60;;
4053;SDS011;2042;47.956;9.222;2023-11-21T14:09:21;1.63;;;0.60;;
4053;SDS011;2042;47.956;9.222;2023-11-21T14:11:51;0.60;;;0.60;;
4053;SDS011;2042;47.956;9.222;2023-11-21T14:14:19;0.60;;;0.50;;
4053;SDS011;2042;47.956;9.222;2023-11-21T14:16:45;0.67;;;0.67;;
4053;SDS011;2042;47.956;9.222;2023-11-21T14:19:11;1.87;;;0.53;;
4053;SDS011;2042;47.956;9.222;2023-11-21T14:21:43;0.70;;;0.70;;
4053;SDS011;2042;47.956;9.222;2023-11-21T14:24:10;0.67;;;0.67;;
4053;SDS011;2042;47.956;9.222;2023-11-21T14:26:39;0.70;;;0.67;;
4053;SDS011;2042;47.956;9.222;2023-11-21T14:29:05;3.73;;;0.80;;
4053;SDS011;2042;47.956;9.222;2023-11-21T14:31:33;0.70;;;0.60;;
4053;SDS011;2042;47.956;9.222;2023-11-21T14:33:59;0.70;;;0.60;;
4053;SDS011;2042;47.956;9.222;2023-11-21T14:36:26;1.67;;;0.60;;
4053;SDS011;2042;47.956;9.222;2023-11-21T14:38:53;0.60;;;0.50;;
4053;SDS011;2042;47.956;9.222;2023-11-21T14:41:19;0.60;;;0.60;;
4053;SDS011;2042;47.956;9.222;2023-11-21T14:43:44;0.83;;;0.57;;
4053;SDS011;2042;47.956;9.222;2023-11-21T14:46:12;0.70;;;0.60;;
4053;SDS011;2042;47.956;9.222;2023-11-21T14:48:42;1.57;;;0.70;;
4053;SDS011;2042;47.956;9.222;2023-11-21T14:51:10;1.00;;;0.80;;
4053;SDS011;2042;47.956;9.222;2023-11-21T14:53:56;2.60;;;0.70;;
4053;SDS011;2042;47.956;9.222;2023-11-21T14:56:31;1.93;;;0.60;;
4053;SDS011;2042;47.956;9.222;2023-11-21T14:58:59;0.70;;;0.70;;
4053;SDS011;2042;47.956;9.222;2023-11-21T15:01:32;1.17;;;0.67;;
4053;SDS011;2042;47.956;9.222;2023-11-21T15:04:20;0.60;;;0.50;;
4053;SDS011;2042;47.956;9.222;2023-11-21T15:07:00;0.70;;;0.67;;
4053;SDS011;2042;47.956;9.222;2023-11-21T15:09:26;0.60;;;0.60;;
4053;SDS011;2042;47.956;9.222;2023-11-21T15:11:58;0.70;;;0.60;;
4053;SDS011;2042;47.956;9.222;2023-11-21T15:14:49;2.20;;;0.80;;
4053;SDS011;2042;47.956;9.222;2023-11-21T15:17:20;1.53;;;0.70;;
4053;SDS011;2042;47.956;9.222;2023-11-21T15:19:51;0.60;;;0.60;;
4053;SDS011;2042;47.956;9.222;2023-11-21T15:22:17;0.70;;;0.60;;
4053;SDS011;2042;47.956;9.222;2023-11-21T15:24:43;0.80;;;0.60;;
4053;SDS011;2042;47.956;9.222;2023-11-21T15:27:11;1.90;;;0.60;;
4053;SDS011;2042;47.956;9.222;2023-11-21T15:29:38;1.20;;;1.00;;
4053;SDS011;2042;47.956;9.222;2023-11-21T15:32:05;1.53;;;0.60;;
4053;SDS011;2042;47.956;9.222;2023-11-21T15:34:32;1.00;;;0.80;;